Time;durP1;ratioP1;P1;durP2;ratioP2;P2;SDS_P1;SDS_P2;PMS_P1;PMS_P2;Temp;Humidity;BMP_temperature;BMP_pressure;BME280_temperature;BME280_humidity;BME280_pressure;Samples;Min_cycle;Max_cycle;Signal;HPM_P1;HPM_P2
2023/10/18 00:01:05;;;;;;;105.32;100.15;;;;;;;11.84;56.32;101142.94;4933628;29;20036;-72
2023/10/18 00:03:32;;;;;;;102.35;97.40;;;;;;;11.83;56.16;101149.38;4932768;29;20036;-72
2023/10/18 00:05:59;;;;;;;102.15;97.18;;;;;;;11.81;56.09;101143.38;4940202;29;20031;-73
2023/10/18 00:08:25;;;;;;;100.30;95.60;;;;;;;11.79;56.27;101155.53;4934873;29;20450;-72
2023/10/18 00:10:53;;;;;;;106.82;101.95;;;;;;;11.79;56.04;101152.81;4934961;29;20043;-73
2023/10/18 00:13:19;;;;;;;99.90;95.10;;;;;;;11.77;55.76;101141.41;4953146;28;20495;-73
2023/10/18 00:15:44;;;;;;;100.65;96.00;;;;;;;11.76;56.05;101143.28;4937583;29;20031;-73
2023/10/18 00:18:11;;;;;;;104.05;99.05;;;;;;;11.76;56.24;101137.06;4938365;29;20472;-73
2023/10/18 00:20:37;;;;;;;106.72;101.32;;;;;;;11.77;56.01;101141.41;4935928;29;20038;-73
2023/10/18 00:23:03;;;;;;;110.88;105.72;;;;;;;11.78;56.22;101143.88;4937501;29;20036;-73
2023/10/18 00:25:28;;;;;;;102.00;97.20;;;;;;;11.79;56.17;101134.72;4935989;29;20468;-73
2023/10/18 00:27:54;;;;;;;104.90;100.10;;;;;;;11.79;56.44;101136.56;4938786;29;20032;-73
2023/10/18 00:30:19;;;;;;;101.57;96.90;;;;;;;11.79;56.36;101128.44;4925327;29;20122;-73
2023/10/18 00:32:45;;;;;;;103.93;99.25;;;;;;;11.80;56.25;101138.22;4937820;29;20035;-72
2023/10/18 00:35:31;;;;;;;99.38;94.88;;;;;;;11.78;56.26;101138.47;4941459;28;20512;-73
2023/10/18 00:37:56;;;;;;;98.35;93.75;;;;;;;11.78;56.39;101132.22;4939160;29;20044;-73
2023/10/18 00:40:40;;;;;;;101.80;97.20;;;;;;;11.78;56.38;101138.47;4936980;29;20039;-70
2023/10/18 00:43:11;;;;;;;106.55;101.25;;;;;;;11.80;56.43;101136.34;4946197;29;20048;-73
2023/10/18 00:45:43;;;;;;;100.03;95.38;;;;;;;11.80;56.44;101138.22;4940662;29;20502;-71
2023/10/18 00:48:11;;;;;;;106.15;101.18;;;;;;;11.80;56.49;101130.94;4936390;29;20043;-71
2023/10/18 00:50:39;;;;;;;101.40;96.60;;;;;;;11.82;56.30;101123.41;4936727;29;20043;-71
2023/10/18 00:53:06;;;;;;;107.23;102.23;;;;;;;11.84;56.47;101120.44;4930653;29;20381;-71
2023/10/18 00:55:31;;;;;;;107.38;102.40;;;;;;;11.86;56.51;101118.31;4955706;28;20573;-71
2023/10/18 00:57:57;;;;;;;110.20;105.10;;;;;;;11.85;56.54;101109.38;4954931;29;20146;-71
2023/10/18 01:00:24;;;;;;;104.18;99.45;;;;;;;11.85;56.35;101108.56;4951391;28;20043;-73
2023/10/18 01:02:52;;;;;;;100.20;95.60;;;;;;;11.84;56.45;101098.78;4941296;29;20151;-73
2023/10/18 01:05:18;;;;;;;104.85;99.43;;;;;;;11.82;56.37;101095.50;4934987;29;20131;-73
2023/10/18 01:07:47;;;;;;;98.72;94.22;;;;;;;11.81;56.36;101093.84;4927575;29;20058;-73
2023/10/18 01:10:12;;;;;;;98.15;93.65;;;;;;;11.79;56.56;101099.53;4953551;29;20066;-71
2023/10/18 01:12:38;;;;;;;100.57;95.90;;;;;;;11.78;56.37;101088.94;4953231;28;20171;-71
2023/10/18 01:15:08;;;;;;;101.93;97.13;;;;;;;11.75;56.32;101084.81;4952770;29;20090;-72
2023/10/18 01:17:36;;;;;;;97.68;93.18;;;;;;;11.75;56.23;101075.88;4950341;28;20521;-72
2023/10/18 01:20:12;;;;;;;100.53;95.80;;;;;;;11.74;56.25;101071.53;4942646;29;20041;-74
2023/10/18 01:22:37;;;;;;;96.80;92.45;;;;;;;11.74;56.42;101071.53;4936235;29;20083;-71
2023/10/18 01:25:04;;;;;;;101.40;96.60;;;;;;;11.74;56.33;101071.53;4935545;29;20054;-71
2023/10/18 01:27:29;;;;;;;103.70;98.93;;;;;;;11.73;56.42;101062.59;4943568;29;20058;-73
2023/10/18 01:29:55;;;;;;;98.78;94.15;;;;;;;11.72;56.42;101060.97;4940355;29;20059;-71
2023/10/18 01:32:21;;;;;;;103.85;98.70;;;;;;;11.71;56.43;101070.13;4935933;29;20044;-71
2023/10/18 01:34:47;;;;;;;100.45;95.90;;;;;;;11.72;56.34;101062.81;4934615;29;20095;-72
2023/10/18 01:37:13;;;;;;;108.07;103.00;;;;;;;11.70;56.33;101057.66;4934982;29;20429;-71
2023/10/18 01:39:39;;;;;;;103.28;98.38;;;;;;;11.70;56.25;101058.50;4931409;29;20617;-71
2023/10/18 01:42:06;;;;;;;99.35;94.85;;;;;;;11.70;56.40;101042.25;4950438;29;20063;-72
2023/10/18 01:44:33;;;;;;;100.07;95.47;;;;;;;11.72;56.59;101041.16;4950932;29;20036;-71
2023/10/18 01:47:05;;;;;;;97.78;93.35;;;;;;;11.70;56.57;101042.25;4940912;29;20529;-71
2023/10/18 01:49:31;;;;;;;98.82;94.22;;;;;;;11.71;56.30;101034.94;4946565;28;20043;-71
2023/10/18 01:51:57;;;;;;;101.95;97.32;;;;;;;11.68;56.46;101021.91;4942752;29;20027;-71
2023/10/18 01:54:26;;;;;;;95.70;91.40;;;;;;;11.65;56.06;101017.81;4934252;29;20040;-72
2023/10/18 01:56:55;;;;;;;99.80;94.85;;;;;;;11.62;56.20;101010.19;4935319;29;20028;-71
2023/10/18 01:59:27;;;;;;;102.65;97.93;;;;;;;11.60;56.26;101006.88;4942166;29;20110;-73
2023/10/18 02:01:54;;;;;;;96.72;92.45;;;;;;;11.56;56.24;101007.63;4946930;29;20396;-71
2023/10/18 02:04:26;;;;;;;104.82;100.10;;;;;;;11.52;56.34;101003.78;4934783;29;20102;-71
2023/10/18 02:07:02;;;;;;;100.88;96.05;;;;;;;11.51;56.15;101008.34;4952734;29;20051;-71
2023/10/18 02:09:36;;;;;;;94.03;89.90;;;;;;;11.50;56.17;101009.41;4952176;29;20467;-71
2023/10/18 02:12:05;;;;;;;96.75;91.95;;;;;;;11.49;56.35;101010.47;4953023;29;20031;-70
2023/10/18 02:14:33;;;;;;;99.28;94.88;;;;;;;11.53;56.43;101013.50;4953870;28;20042;-70
2023/10/18 02:16:59;;;;;;;101.28;96.55;;;;;;;11.52;56.60;101009.19;4953027;28;20023;-73
2023/10/18 02:19:26;;;;;;;108.55;103.55;;;;;;;11.54;56.78;101005.16;4952025;28;20052;-72
2023/10/18 02:21:52;;;;;;;102.40;97.75;;;;;;;11.53;56.50;101006.22;4950794;29;20367;-72
2023/10/18 02:24:18;;;;;;;100.30;95.75;;;;;;;11.52;56.30;100995.66;4939319;29;20476;-72
2023/10/18 02:26:56;;;;;;;96.75;92.53;;;;;;;11.50;56.28;100998.59;4953818;28;20516;-72
2023/10/18 02:29:23;;;;;;;95.88;91.47;;;;;;;11.48;56.32;100995.31;4949113;29;20079;-72
2023/10/18 02:31:56;;;;;;;96.85;92.50;;;;;;;11.46;56.55;100990.16;4939658;29;20047;-72
2023/10/18 02:34:24;;;;;;;100.68;96.18;;;;;;;11.46;56.23;100992.00;4934199;29;20332;-72
2023/10/18 02:36:51;;;;;;;98.80;94.43;;;;;;;11.43;56.06;100987.91;4945297;28;20036;-71
2023/10/18 02:39:27;;;;;;;101.82;96.93;;;;;;;11.43;56.26;100979.78;4933745;29;20393;-72
2023/10/18 02:41:56;;;;;;;100.10;95.35;;;;;;;11.40;56.20;100972.16;4933194;29;20391;-73
2023/10/18 02:44:22;;;;;;;99.18;94.38;;;;;;;11.38;56.24;100981.59;4934099;29;20035;-73
2023/10/18 02:46:53;;;;;;;99.88;95.03;;;;;;;11.35;56.40;100977.47;4937867;29;20118;-73
2023/10/18 02:49:20;;;;;;;107.53;102.32;;;;;;;11.33;56.01;100973.38;4932557;29;20036;-74
2023/10/18 02:51:46;;;;;;;101.18;96.03;;;;;;;11.29;55.97;100973.06;4934014;29;20388;-74
2023/10/18 02:56:41;;;;;;;103.55;98.55;;;;;;;11.25;56.14;100972.69;4937162;29;20499;-72
2023/10/18 02:59:07;;;;;;;100.82;96.10;;;;;;;11.24;55.99;100965.66;4951493;29;20543;-71
2023/10/18 03:01:42;;;;;;;97.38;92.88;;;;;;;11.23;56.27;100961.31;4953272;28;20111;-71
2023/10/18 03:04:09;;;;;;;102.43;97.53;;;;;;;11.23;56.13;100955.06;4951736;29;20045;-72
2023/10/18 03:06:36;;;;;;;107.05;102.25;;;;;;;11.20;55.96;100953.69;4950438;28;20043;-72
2023/10/18 03:09:03;;;;;;;92.30;87.72;;;;;;;11.18;56.10;100949.56;4949941;29;20110;-71
2023/10/18 03:11:31;;;;;;;100.43;95.88;;;;;;;11.17;56.15;100946.06;4940431;29;20040;-72
2023/10/18 03:13:57;;;;;;;100.70;96.07;;;;;;;11.17;55.99;100942.53;4950681;29;20035;-71
2023/10/18 03:16:28;;;;;;;101.80;97.07;;;;;;;11.15;56.06;100940.06;4940293;28;20124;-71
2023/10/18 03:18:54;;;;;;;98.10;93.43;;;;;;;11.10;55.86;100934.56;4935034;29;20495;-72
2023/10/18 03:21:22;;;;;;;98.88;94.10;;;;;;;11.05;55.71;100924.47;4932667;29;20118;-72
2023/10/18 03:23:52;;;;;;;98.88;94.35;;;;;;;11.01;55.68;100922.47;4934217;29;20039;-71
2023/10/18 03:26:59;;;;;;;98.95;94.38;;;;;;;10.97;55.81;100915.94;4950167;29;20114;-72
2023/10/18 03:29:16;;;;;;;92.75;88.50;;;;;;;10.93;55.84;100904.75;4955564;28;20437;-72
2023/10/18 03:31:47;;;;;;;91.47;87.07;;;;;;;10.90;55.53;100915.25;4934485;29;20036;-72
2023/10/18 03:34:18;;;;;;;95.20;90.65;;;;;;;10.86;55.64;100914.94;4932135;29;20115;-73
2023/10/18 03:36:53;;;;;;;90.82;86.75;;;;;;;10.84;55.81;100903.53;4944399;29;20063;-73
2023/10/18 03:39:19;;;;;;;94.03;89.43;;;;;;;10.85;55.81;100899.75;4933870;29;20091;-73
2023/10/18 03:41:53;;;;;;;97.97;93.55;;;;;;;10.83;55.94;100904.56;4932918;29;20463;-73
2023/10/18 03:44:22;;;;;;;100.82;95.78;;;;;;;10.83;55.62;100902.72;4941655;29;20098;-73
2023/10/18 03:46:48;;;;;;;97.20;92.53;;;;;;;10.83;55.85;100894.59;4949284;28;20499;-73
2023/10/18 03:49:31;;;;;;;102.22;97.55;;;;;;;10.86;55.92;100893.31;4935602;29;20043;-74
2023/10/18 03:57:28;;;;;;;94.35;89.95;;;;;;;10.82;56.00;100887.53;4956193;28;20050;-73
2023/10/18 04:00:09;;;;;;;90.93;86.65;;;;;;;10.83;56.47;100883.78;4956301;28;20063;-73
2023/10/18 04:02:34;;;;;;;91.60;87.25;;;;;;;10.86;56.02;100874.38;4954843;29;20035;-73
2023/10/18 04:05:05;;;;;;;98.53;93.75;;;;;;;10.86;55.92;100870.84;4951035;29;20035;-73
2023/10/18 04:07:31;;;;;;;99.35;94.78;;;;;;;10.83;55.94;100870.28;4936832;29;20044;-73
2023/10/18 04:12:27;;;;;;;92.25;88.07;;;;;;;10.78;55.86;100864.75;4950024;29;20047;-74
2023/10/18 04:14:55;;;;;;;92.32;87.85;;;;;;;10.75;55.97;100865.25;4939831;28;20028;-73
2023/10/18 04:17:32;;;;;;;92.72;88.45;;;;;;;10.74;55.97;100850.09;4936942;29;20126;-73
2023/10/18 04:20:00;;;;;;;91.47;87.40;;;;;;;10.75;56.02;100853.63;4943732;29;20043;-73
2023/10/18 04:22:27;;;;;;;101.32;96.35;;;;;;;10.75;55.73;100862.53;4939730;29;20376;-73
2023/10/18 04:24:53;;;;;;;97.43;92.70;;;;;;;10.73;55.83;100858.44;4946603;29;20119;-73
2023/10/18 04:27:18;;;;;;;94.18;89.65;;;;;;;10.72;55.77;100851.41;4940340;29;20122;-74
2023/10/18 04:29:47;;;;;;;92.13;87.63;;;;;;;10.73;56.00;100851.16;4938083;29;20031;-72
2023/10/18 04:32:18;;;;;;;89.72;85.55;;;;;;;10.75;55.87;100856.31;4925396;29;20046;-74
2023/10/18 04:34:44;;;;;;;91.30;86.50;;;;;;;10.74;55.79;100841.19;4944819;29;20035;-75
2023/10/18 04:37:12;;;;;;;92.07;87.70;;;;;;;10.73;55.96;100837.63;4949702;29;20032;-73
2023/10/18 04:39:40;;;;;;;94.07;89.53;;;;;;;10.73;55.87;100829.53;4951976;28;20115;-72
2023/10/18 04:42:06;;;;;;;90.68;86.20;;;;;;;10.72;56.00;100829.78;4951560;29;20039;-72
2023/10/18 04:44:35;;;;;;;97.88;93.45;;;;;;;10.72;55.83;100824.41;4954418;28;20463;-74
2023/10/18 04:47:14;;;;;;;;;;;;;;;10.70;55.85;100823.81;4954901;29;20035;-74
2023/10/18 04:49:39;;;;;;;88.30;84.07;;;;;;;10.68;55.88;100818.63;4954755;28;19910;-74
2023/10/18 04:52:07;;;;;;;89.10;85.10;;;;;;;10.68;56.21;100807.00;4952977;29;20047;-72
2023/10/18 04:54:41;;;;;;;94.80;90.32;;;;;;;10.64;55.87;100804.00;4943996;28;20031;-74
2023/10/18 04:57:12;;;;;;;86.93;82.97;;;;;;;10.61;56.03;100797.19;4944437;28;20042;-75
2023/10/18 04:59:52;;;;;;;92.25;87.78;;;;;;;10.61;55.86;100793.66;4934872;29;20031;-73
2023/10/18 05:02:18;;;;;;;92.07;87.70;;;;;;;10.58;55.71;100803.06;4944642;29;20043;-73
2023/10/18 05:04:46;;;;;;;91.85;87.45;;;;;;;10.58;55.95;100805.78;4954062;29;20122;-75
2023/10/18 05:12:28;;;;;;;85.32;81.07;;;;;;;10.55;56.05;100795.44;4951042;28;20078;-75
2023/10/18 05:17:47;;;;;;;92.35;87.25;;;;;;;10.59;56.37;100791.19;4935514;29;20063;-72
2023/10/18 05:20:22;;;;;;;92.35;87.70;;;;;;;10.61;56.23;100788.28;4939911;29;20122;-73
2023/10/18 05:22:50;;;;;;;94.53;89.85;;;;;;;10.61;56.16;100793.66;4949567;28;20040;-73
2023/10/18 05:25:30;;;;;;;94.83;90.23;;;;;;;10.59;56.01;100774.19;4935572;29;20094;-76
2023/10/18 05:28:15;;;;;;;94.53;89.80;;;;;;;10.57;56.05;100781.69;4935927;29;20032;-71
2023/10/18 05:36:17;;;;;;;92.53;88.18;;;;;;;10.59;55.84;100780.41;4953171;29;20126;-74
2023/10/18 05:43:58;;;;;;;95.60;91.28;;;;;;;10.60;56.02;100763.13;4935896;29;20436;-73
2023/10/18 05:46:27;;;;;;;96.88;92.20;;;;;;;10.60;55.92;100765.81;4954131;29;20035;-74
2023/10/18 05:48:57;;;;;;;90.80;86.03;;;;;;;10.58;56.01;100759.03;4953104;28;20058;-74
2023/10/18 05:51:26;;;;;;;86.60;82.38;;;;;;;10.56;56.10;100751.19;4953729;28;20058;-74
2023/10/18 05:53:59;;;;;;;95.60;91.22;;;;;;;10.55;55.79;100746.81;4953336;29;20031;-74
2023/10/18 05:56:30;;;;;;;96.30;91.70;;;;;;;10.54;55.97;100749.78;4941570;28;20067;-74
2023/10/18 06:01:45;;;;;;;94.93;90.47;;;;;;;10.51;55.88;100751.09;4949064;29;20086;-72
2023/10/18 06:04:13;;;;;;;92.13;87.32;;;;;;;10.50;55.98;100751.31;4943618;29;20067;-74
2023/10/18 06:06:39;;;;;;;91.50;87.05;;;;;;;10.50;55.94;100748.63;4933507;29;20040;-74
2023/10/18 06:09:26;;;;;;;95.00;90.30;;;;;;;10.52;55.92;100738.38;4935461;29;20047;-72
2023/10/18 06:11:51;;;;;;;91.47;86.95;;;;;;;10.52;55.83;100741.09;4934363;28;20039;-73
2023/10/18 06:14:17;;;;;;;93.97;89.63;;;;;;;10.55;56.11;100735.19;4925421;29;20459;-72
2023/10/18 06:16:43;;;;;;;93.55;89.13;;;;;;;10.56;56.13;100732.28;4934631;29;20032;-72
2023/10/18 06:19:13;;;;;;;92.97;87.35;;;;;;;10.56;55.80;100728.75;4934661;29;20031;-74
2023/10/18 06:21:55;;;;;;;96.20;91.47;;;;;;;10.56;55.72;100726.06;4936607;29;20476;-74
2023/10/18 06:24:20;;;;;;;91.90;87.38;;;;;;;10.53;56.04;100718.41;4948808;29;20074;-75
2023/10/18 06:26:52;;;;;;;85.07;80.97;;;;;;;10.52;55.91;100714.09;4952055;28;20078;-74
2023/10/18 06:29:22;;;;;;;89.75;85.43;;;;;;;10.51;55.97;100707.88;4952127;29;20039;-73
2023/10/18 06:31:49;;;;;;;94.90;90.60;;;;;;;10.50;55.85;100713.50;4952533;28;20388;-74
2023/10/18 06:34:17;;;;;;;92.57;88.07;;;;;;;10.48;56.21;100705.66;4943327;29;20051;-74
2023/10/18 06:36:49;;;;;;;88.07;83.63;;;;;;;10.50;56.02;100700.81;4934137;29;20063;-73
2023/10/18 06:39:34;;;;;;;90.40;85.85;;;;;;;10.48;56.34;100699.41;4939015;28;20078;-73
2023/10/18 06:41:59;;;;;;;90.03;85.70;;;;;;;10.48;56.29;100697.56;4966199;28;20039;-72
2023/10/18 06:44:30;;;;;;;93.07;88.15;;;;;;;10.47;56.20;100692.41;4946682;28;20050;-73
2023/10/18 06:46:57;;;;;;;86.50;81.93;;;;;;;10.44;55.96;100693.69;4950546;28;20035;-73
2023/10/18 06:49:23;;;;;;;84.60;80.60;;;;;;;10.43;56.16;100691.22;4946244;28;20038;-73
2023/10/18 06:51:51;;;;;;;100.38;95.22;;;;;;;10.43;56.23;100689.34;4934344;28;20438;-71
2023/10/18 06:54:31;;;;;;;93.25;88.35;;;;;;;10.44;56.37;100693.69;4943916;28;20039;-73
2023/10/18 06:56:58;;;;;;;93.80;88.95;;;;;;;10.44;56.05;100688.28;4948777;28;20035;-73
2023/10/18 06:59:28;;;;;;;93.40;88.85;;;;;;;10.42;55.90;100685.00;4946378;28;20035;-73
2023/10/18 07:02:00;;;;;;;92.53;88.20;;;;;;;10.42;56.17;100676.91;4949015;28;20476;-73
2023/10/18 07:04:35;;;;;;;88.60;84.28;;;;;;;10.39;56.04;100670.13;4954137;28;20042;-73
2023/10/18 07:07:19;;;;;;;91.88;87.13;;;;;;;10.37;56.04;100663.31;4945267;28;20151;-72
2023/10/18 07:09:45;;;;;;;96.53;91.85;;;;;;;10.33;55.83;100672.97;4950769;28;20043;-73
2023/10/18 07:12:11;;;;;;;91.30;86.90;;;;;;;10.31;55.80;100672.41;4946188;28;20577;-75
2023/10/18 07:14:40;;;;;;;87.78;83.22;;;;;;;10.28;55.81;100684.50;4958822;28;20042;-72
2023/10/18 07:17:09;;;;;;;92.78;88.32;;;;;;;10.29;55.88;100677.22;4954799;28;20034;-73
2023/10/18 07:19:47;;;;;;;90.60;86.30;;;;;;;10.30;55.91;100674.25;4949938;28;20043;-75
2023/10/18 07:22:21;;;;;;;84.80;80.93;;;;;;;10.29;56.03;100675.34;4955324;28;20185;-74
2023/10/18 07:24:47;;;;;;;86.05;81.57;;;;;;;10.27;55.83;100668.50;4948828;28;20058;-74
2023/10/18 07:27:17;;;;;;;85.93;81.63;;;;;;;10.24;55.94;100669.81;4952753;28;20550;-75
2023/10/18 07:29:47;;;;;;;89.00;84.75;;;;;;;10.24;56.38;100659.00;4950281;28;20039;-74
2023/10/18 07:32:13;;;;;;;95.03;90.40;;;;;;;10.23;56.04;100654.69;4947378;28;20156;-73
2023/10/18 07:34:39;;;;;;;92.57;88.13;;;;;;;10.26;56.27;100656.09;4946639;28;20063;-74
2023/10/18 07:37:31;;;;;;;83.18;79.00;;;;;;;10.26;56.29;100656.91;4950258;28;20050;-74
2023/10/18 07:39:57;;;;;;;84.32;80.13;;;;;;;10.23;56.22;100646.59;4955850;28;20053;-73
2023/10/18 07:42:34;;;;;;;103.25;98.07;;;;;;;10.25;56.18;100643.63;4932531;28;20122;-76
2023/10/18 07:45:08;;;;;;;88.03;83.97;;;;;;;10.26;56.21;100642.59;4958727;28;20046;-74
2023/10/18 07:47:37;;;;;;;95.95;90.82;;;;;;;10.26;56.54;100635.31;4936515;28;20034;-74
2023/10/18 07:50:25;;;;;;;86.03;81.63;;;;;;;10.27;56.23;100631.53;4951660;28;20563;-73
2023/10/18 07:52:49;;;;;;;83.65;79.78;;;;;;;10.28;56.29;100637.78;4954811;28;20115;-73
2023/10/18 07:55:15;;;;;;;88.38;84.00;;;;;;;10.31;56.33;100631.91;4960057;28;20043;-73
2023/10/18 07:57:46;;;;;;;88.93;84.50;;;;;;;10.32;56.26;100628.94;4957605;28;20110;-73
2023/10/18 08:00:32;;;;;;;94.45;89.78;;;;;;;10.33;56.30;100629.75;4954400;28;20043;-73
2023/10/18 08:02:57;;;;;;;89.15;84.53;;;;;;;10.32;56.48;100620.03;4958710;28;20063;-72
2023/10/18 08:05:30;;;;;;;92.00;87.50;;;;;;;10.32;56.31;100617.34;4953399;28;20039;-75
2023/10/18 08:07:57;;;;;;;93.97;89.30;;;;;;;10.31;56.34;100615.72;4950921;28;20047;-74
2023/10/18 08:10:23;;;;;;;95.82;91.32;;;;;;;10.32;56.32;100615.44;4949983;28;20058;-73
2023/10/18 08:13:10;;;;;;;95.82;91.20;;;;;;;10.35;56.28;100608.75;4949720;28;20070;-75
2023/10/18 08:15:37;;;;;;;91.13;86.57;;;;;;;10.37;56.32;100620.13;4945627;28;20054;-75
2023/10/18 08:18:15;;;;;;;97.72;92.95;;;;;;;10.35;56.49;100598.75;4949239;28;20078;-74
2023/10/18 08:24:07;;;;;;;92.00;87.15;;;;;;;10.37;56.75;100590.41;4959480;28;20387;-74
2023/10/18 08:26:04;;;;;;;88.65;84.45;;;;;;;10.38;56.57;100594.75;4948470;28;20152;-74
2023/10/18 08:28:40;;;;;;;91.63;87.45;;;;;;;10.39;56.48;100588.31;4953204;28;20498;-77
2023/10/18 08:31:35;;;;;;;93.90;89.40;;;;;;;10.42;56.29;100595.91;4953218;28;20114;-75
2023/10/18 08:34:11;;;;;;;89.70;85.35;;;;;;;10.45;56.49;100592.69;4935458;28;20074;-74
2023/10/18 08:36:38;;;;;;;96.50;91.43;;;;;;;10.48;56.85;100588.69;4949728;28;20037;-75
2023/10/18 08:39:04;;;;;;;93.75;88.50;;;;;;;10.50;56.96;100583.88;4948643;28;20126;-76
2023/10/18 08:41:36;;;;;;;90.43;86.18;;;;;;;10.51;56.22;100577.44;4933110;28;20107;-75
2023/10/18 08:44:19;;;;;;;96.78;92.07;;;;;;;10.53;56.46;100580.69;4934595;29;20122;-74
2023/10/18 08:46:54;;;;;;;98.28;92.57;;;;;;;10.54;56.61;100568.81;4950061;28;20403;-74
2023/10/18 08:49:24;;;;;;;94.97;90.43;;;;;;;10.56;56.77;100570.22;4951835;28;20037;-76
2023/10/18 08:54:51;;;;;;;100.18;94.80;;;;;;;10.60;56.74;100562.44;4913283;28;20098;-74
2023/10/18 08:57:36;;;;;;;98.50;93.90;;;;;;;10.59;56.71;100550.81;4946745;28;20040;-73
2023/10/18 09:01:02;;;;;;;105.60;100.68;;;;;;;10.61;56.57;100550.56;4960468;28;20493;-74
2023/10/18 09:02:51;;;;;;;95.50;90.43;;;;;;;10.61;56.70;100547.88;4945826;28;20047;-75
2023/10/18 09:05:22;;;;;;;100.13;95.13;;;;;;;10.61;56.62;100535.19;4936016;28;20047;-74
2023/10/18 09:07:50;;;;;;;97.45;92.57;;;;;;;10.62;56.46;100536.00;4954532;28;20178;-74
2023/10/18 09:10:46;;;;;;;101.75;96.85;;;;;;;10.64;56.86;100527.66;4967709;28;20035;-74
2023/10/18 09:18:41;;;;;;;94.65;89.93;;;;;;;10.67;56.65;100516.34;4927633;28;20051;-76
2023/10/18 09:23:40;;;;;;;95.03;90.53;;;;;;;10.71;56.64;100515.59;4947590;28;20070;-75
2023/10/18 09:26:18;;;;;;;100.67;96.07;;;;;;;10.73;56.81;100497.22;4944961;28;20046;-74
2023/10/18 09:28:44;;;;;;;97.72;93.00;;;;;;;10.78;56.67;100502.69;4948768;28;20030;-75
2023/10/18 09:31:19;;;;;;;111.28;105.72;;;;;;;10.78;56.85;100500.00;4930412;28;20032;-74
2023/10/18 09:34:07;;;;;;;102.03;97.30;;;;;;;10.80;56.97;100488.97;4950809;28;20045;-76
2023/10/18 09:36:43;;;;;;;94.75;90.28;;;;;;;10.83;56.64;100488.44;4949690;28;20391;-76
2023/10/18 09:39:09;;;;;;;102.13;96.75;;;;;;;10.87;56.77;100483.38;4948537;28;20035;-74
2023/10/18 09:41:38;;;;;;;101.10;96.30;;;;;;;10.89;56.85;100481.25;4953407;28;20034;-74
2023/10/18 09:44:04;;;;;;;110.30;104.75;;;;;;;10.92;56.70;100475.34;4951487;28;20031;-75
2023/10/18 09:46:32;;;;;;;104.38;99.38;;;;;;;10.95;56.63;100469.41;4949416;28;20041;-74
2023/10/18 09:48:59;;;;;;;103.05;97.80;;;;;;;10.97;56.81;100465.41;4949148;28;20527;-75
2023/10/18 09:51:26;;;;;;;102.72;97.82;;;;;;;11.02;56.79;100461.94;4948369;28;20035;-75
2023/10/18 09:53:52;;;;;;;106.78;101.53;;;;;;;11.04;57.08;100457.91;4950738;28;20081;-74
2023/10/18 09:56:19;;;;;;;101.28;96.32;;;;;;;11.09;56.83;100454.47;4946193;28;20586;-74
2023/10/18 09:58:49;;;;;;;100.10;95.25;;;;;;;11.12;56.75;100453.94;4958497;28;20038;-75
2023/10/18 10:01:53;;;;;;;104.07;99.15;;;;;;;11.14;56.75;100435.59;4945221;28;20086;-74
2023/10/18 10:04:21;;;;;;;106.93;101.68;;;;;;;11.16;56.74;100429.91;4945190;28;20059;-75
2023/10/18 10:06:48;;;;;;;107.82;102.22;;;;;;;11.18;56.79;100414.25;4958816;28;20043;-75
2023/10/18 10:09:14;;;;;;;104.72;99.63;;;;;;;11.21;56.60;100420.00;4946170;28;20118;-74
2023/10/18 10:11:43;;;;;;;104.40;99.53;;;;;;;11.24;56.83;100416.78;4943365;28;20063;-79
2023/10/18 10:14:11;;;;;;;109.18;103.75;;;;;;;11.27;56.94;100413.56;4946146;28;20499;-73
2023/10/18 10:16:39;;;;;;;103.28;98.45;;;;;;;11.30;57.00;100414.13;4948923;28;20043;-74
2023/10/18 10:19:11;;;;;;;111.05;105.75;;;;;;;11.33;56.91;100409.00;4943472;28;20031;-76
2023/10/18 10:21:37;;;;;;;104.07;99.13;;;;;;;11.37;56.98;100396.63;4941496;28;20042;-74
2023/10/18 10:24:29;;;;;;;112.10;106.80;;;;;;;11.37;57.07;100385.81;4943373;28;20047;-75
2023/10/18 10:26:53;;;;;;;113.90;108.60;;;;;;;11.40;57.12;100384.47;4956233;28;20059;-74
2023/10/18 10:29:33;;;;;;;113.00;107.20;;;;;;;11.43;56.94;100383.94;4946600;28;20046;-73
2023/10/18 10:32:04;;;;;;;119.38;113.25;;;;;;;11.46;57.24;100380.72;4945379;28;20042;-76
2023/10/18 10:34:34;;;;;;;104.30;99.13;;;;;;;11.50;57.16;100383.75;4946243;28;20027;-74
2023/10/18 10:37:15;;;;;;;112.70;107.20;;;;;;;11.52;57.00;100374.31;4954200;28;20035;-74
2023/10/18 10:39:44;;;;;;;110.40;105.30;;;;;;;11.56;57.21;100380.00;4947215;28;20122;-73
2023/10/18 10:42:29;;;;;;;107.43;102.05;;;;;;;11.58;57.31;100372.44;4943891;28;20476;-77
2023/10/18 10:45:10;;;;;;;103.68;98.65;;;;;;;11.62;57.40;100360.06;4942771;28;20039;-75
2023/10/18 10:47:42;;;;;;;110.32;104.78;;;;;;;11.63;57.16;100364.38;4941125;28;20110;-73
2023/10/18 10:50:09;;;;;;;113.22;107.50;;;;;;;11.65;57.05;100354.13;4946283;28;20038;-77
2023/10/18 10:52:38;;;;;;;109.22;104.13;;;;;;;11.70;57.12;100340.63;4944964;28;20063;-75
2023/10/18 10:55:21;;;;;;;108.03;102.53;;;;;;;11.74;57.15;100336.31;4951333;28;20183;-75
2023/10/18 10:57:48;;;;;;;112.95;107.40;;;;;;;11.77;57.15;100327.69;4946779;28;20041;-78
2023/10/18 11:03:06;;;;;;;111.25;105.65;;;;;;;11.82;57.08;100322.31;4944391;28;20066;-74
2023/10/18 11:05:39;;;;;;;118.22;112.43;;;;;;;11.88;57.20;100306.94;4945494;28;20031;-74
2023/10/18 11:08:05;;;;;;;114.60;108.57;;;;;;;11.90;57.66;100300.19;4966623;28;20950;-74
2023/10/18 11:10:39;;;;;;;115.22;109.65;;;;;;;11.95;57.18;100295.88;4941940;28;20494;-74
2023/10/18 11:13:07;;;;;;;117.22;111.47;;;;;;;11.99;57.45;100284.25;4941663;28;20225;-74
2023/10/18 11:15:36;;;;;;;119.75;114.25;;;;;;;12.04;57.49;100284.28;4947040;28;20125;-73
2023/10/18 11:18:20;;;;;;;118.82;113.15;;;;;;;12.10;57.41;100285.94;4953364;28;20085;-73
2023/10/18 11:21:19;;;;;;;114.43;108.75;;;;;;;12.15;57.43;100287.06;4944326;28;20126;-76
2023/10/18 11:23:38;;;;;;;113.35;108.00;;;;;;;12.13;57.46;100288.13;4947426;28;20082;-75
2023/10/18 11:26:09;;;;;;;113.40;107.72;;;;;;;12.15;57.43;100276.22;4945221;28;20138;-75
2023/10/18 11:28:37;;;;;;;113.72;108.47;;;;;;;12.18;57.44;100265.66;4945894;28;20063;-74
2023/10/18 11:31:04;;;;;;;120.43;114.63;;;;;;;12.21;57.49;100262.44;4944679;28;20046;-74
2023/10/18 11:36:21;;;;;;;114.40;108.38;;;;;;;12.26;57.53;100246.19;4939408;28;20036;-74
2023/10/18 11:41:34;;;;;;;117.57;112.18;;;;;;;12.32;57.54;100241.59;4947453;28;20041;-74
2023/10/18 11:44:13;;;;;;;116.50;110.68;;;;;;;12.35;57.37;100235.69;4942587;28;20066;-72
2023/10/18 11:46:56;;;;;;;113.07;107.97;;;;;;;12.37;57.36;100235.38;4944226;28;20433;-73
2023/10/18 11:49:32;;;;;;;121.65;115.88;;;;;;;12.39;57.27;100220.50;4943861;28;20159;-72
2023/10/18 11:51:58;;;;;;;114.57;109.18;;;;;;;12.45;57.37;100224.06;4939797;28;20172;-76
2023/10/18 11:54:36;;;;;;;123.72;117.90;;;;;;;12.47;57.49;100203.75;4944179;28;20122;-73
2023/10/18 11:57:06;;;;;;;124.88;118.95;;;;;;;12.51;57.34;100206.72;4945168;28;20419;-74
2023/10/18 12:00:35;;;;;;;119.97;114.07;;;;;;;12.57;57.55;100205.63;4944502;28;20039;-73
2023/10/18 12:02:50;;;;;;;;;;;;;;;12.63;57.02;100195.63;4940134;28;20467;-75
2023/10/18 12:05:23;;;;;;;116.32;111.07;;;;;;;12.60;57.26;100188.03;4958926;28;19949;-73
2023/10/18 12:07:49;;;;;;;115.88;110.68;;;;;;;12.60;57.50;100182.59;4960821;28;20101;-72
2023/10/18 12:10:34;;;;;;;124.57;118.53;;;;;;;12.61;57.15;100168.00;4946089;28;20176;-73
2023/10/18 12:13:05;;;;;;;123.28;117.78;;;;;;;12.63;57.40;100179.38;4959791;28;20665;-72
2023/10/18 12:15:31;;;;;;;119.22;113.80;;;;;;;12.66;57.14;100168.81;4961598;28;20026;-73